Terminal Aerodrome Forecast
Issued by NWS

Home | Current Version | Previous Version | Text Only | Print | Product List | Glossary On
Versions: 1 2 3 4 5 6 7 8 9 10 11 12 13 14 15 16 17 18 19 20
000
FTUS41 KGYX 010531
TAFAUG
TAF
KAUG 010531Z 0106/0206 36002KT 2SM BR OVC002
      TEMPO 0106/0109 2SM -RA OVC015
     FM010900 27002KT 1/2SM FG OVC001
      TEMPO 0109/0112 5SM -RA BR
     FM011300 00000KT 3SM BR OVC004
     FM011500 30005KT P6SM BKN050
     FM011800 VRB03KT P6SM BKN250 PROB30 0118/0124 P6SM -SHRA BKN250
     FM020000 17003KT 5SM HZ OVC050
     FM020300 00000KT 4SM BR OVC010=

USA.gov is the U.S. government's official web portal to all federal, state and local government web resources and services.